createdAt,value
2018-10-07T00:02:01.207Z,95.00
2018-10-07T00:05:05.358Z,95.10
2018-10-07T00:08:09.511Z,95.00
2018-10-07T00:11:13.678Z,95.00
2018-10-07T00:14:17.810Z,95.10
2018-10-07T00:17:22.059Z,95.10
2018-10-07T00:20:26.302Z,95.20
2018-10-07T00:23:30.500Z,95.20
2018-10-07T00:26:34.647Z,95.30
2018-10-07T00:29:38.802Z,95.30
2018-10-07T00:32:42.950Z,95.30
2018-10-07T00:35:47.143Z,95.40
2018-10-07T00:38:51.295Z,95.40
2018-10-07T00:41:55.434Z,95.50
2018-10-07T00:44:59.568Z,95.40
2018-10-07T00:48:03.699Z,95.50
2018-10-07T00:51:07.827Z,95.40
2018-10-07T00:54:11.942Z,95.40
2018-10-07T00:57:16.080Z,95.50
2018-10-07T01:00:20.227Z,95.40
2018-10-07T01:03:24.342Z,95.60
2018-10-07T01:06:28.463Z,95.70
2018-10-07T01:09:32.614Z,95.70
2018-10-07T01:12:36.739Z,95.70
2018-10-07T01:15:40.962Z,95.90
2018-10-07T01:18:45.101Z,96.00
2018-10-07T01:21:49.481Z,95.80
2018-10-07T01:24:53.642Z,95.70
2018-10-07T01:27:57.773Z,95.80
2018-10-07T01:31:01.966Z,95.70
2018-10-07T01:34:06.148Z,95.80
2018-10-07T01:37:10.275Z,95.90
2018-10-07T01:40:14.414Z,95.90
2018-10-07T01:43:18.648Z,95.90
2018-10-07T01:46:22.782Z,95.90
2018-10-07T01:49:26.931Z,95.70
2018-10-07T01:52:31.098Z,95.70
2018-10-07T01:55:35.222Z,95.80
2018-10-07T01:58:39.354Z,95.80
2018-10-07T02:01:43.486Z,95.90
2018-10-07T02:04:47.638Z,95.70
2018-10-07T02:07:51.827Z,95.60
2018-10-07T02:10:55.958Z,95.60
2018-10-07T02:14:00.188Z,95.60
2018-10-07T02:17:04.270Z,95.60
2018-10-07T02:20:08.407Z,95.60
2018-10-07T02:23:12.528Z,95.60
2018-10-07T02:26:16.669Z,95.60
2018-10-07T02:29:20.800Z,95.60
2018-10-07T02:32:24.936Z,95.60
2018-10-07T02:35:29.498Z,95.70
2018-10-07T02:38:33.639Z,95.70
2018-10-07T02:41:37.784Z,95.70
2018-10-07T02:44:41.926Z,95.90
2018-10-07T02:47:46.043Z,96.00
2018-10-07T02:50:50.170Z,96.20
2018-10-07T02:53:54.305Z,96.50
2018-10-07T02:56:58.441Z,96.20
2018-10-07T03:00:02.581Z,96.10
2018-10-07T03:03:06.755Z,96.10
2018-10-07T03:06:10.895Z,96.00
2018-10-07T03:09:15.020Z,96.00
2018-10-07T03:12:19.149Z,96.00
2018-10-07T03:15:23.292Z,96.10
2018-10-07T03:18:27.439Z,95.90
2018-10-07T03:21:32.185Z,95.90
2018-10-07T03:24:36.306Z,95.80
2018-10-07T03:27:40.444Z,96.00
2018-10-07T03:30:44.599Z,96.30
2018-10-07T03:33:48.727Z,96.10
2018-10-07T03:36:53.049Z,96.10
2018-10-07T03:39:57.189Z,96.40
2018-10-07T03:43:01.327Z,96.40
2018-10-07T03:46:05.467Z,96.40
2018-10-07T03:49:09.597Z,96.10
2018-10-07T03:52:13.785Z,96.00
2018-10-07T03:55:17.907Z,96.20
2018-10-07T03:58:22.026Z,96.40
2018-10-07T04:01:26.149Z,96.40
2018-10-07T04:04:30.290Z,95.90
2018-10-07T04:07:34.573Z,96.10
2018-10-07T04:10:38.702Z,96.10
2018-10-07T04:13:42.847Z,96.30
2018-10-07T04:16:46.998Z,96.60
2018-10-07T04:19:51.128Z,96.30
2018-10-07T04:22:55.250Z,96.30
2018-10-07T04:25:59.418Z,96.30
2018-10-07T04:29:03.533Z,96.20
2018-10-07T04:32:07.726Z,96.10
2018-10-07T04:35:11.883Z,96.00
2018-10-07T04:38:16.014Z,95.90
2018-10-07T04:41:20.155Z,95.50
2018-10-07T04:44:24.320Z,95.80
2018-10-07T04:47:28.449Z,96.20
2018-10-07T04:50:32.574Z,96.10
2018-10-07T04:53:36.880Z,95.80
2018-10-07T04:56:41.026Z,96.10
2018-10-07T04:59:45.155Z,96.40
2018-10-07T05:02:49.286Z,96.60
2018-10-07T05:05:53.431Z,96.40
2018-10-07T05:08:57.920Z,96.50
2018-10-07T05:12:05.029Z,96.50
2018-10-07T05:15:09.118Z,96.60
2018-10-07T05:18:13.262Z,96.70
2018-10-07T05:21:17.399Z,96.60
2018-10-07T05:24:21.524Z,96.30
2018-10-07T05:27:25.653Z,96.30
2018-10-07T05:30:29.882Z,96.10
2018-10-07T05:33:34.133Z,96.10
2018-10-07T05:36:38.163Z,96.40
2018-10-07T05:39:42.315Z,96.60
2018-10-07T05:42:46.451Z,96.40
2018-10-07T05:45:50.587Z,96.30
2018-10-07T05:48:54.757Z,96.30
2018-10-07T05:51:58.910Z,96.50
2018-10-07T05:55:03.049Z,96.40
2018-10-07T05:58:07.268Z,96.50
2018-10-07T06:01:27.050Z,96.50
2018-10-07T06:04:40.337Z,96.20
2018-10-07T06:07:44.870Z,95.40
2018-10-07T06:10:49.001Z,94.40
2018-10-07T06:13:53.149Z,93.40
2018-10-07T06:16:57.355Z,92.10
2018-10-07T06:20:01.509Z,91.50
2018-10-07T06:23:05.646Z,91.30
2018-10-07T06:26:09.779Z,90.60
2018-10-07T06:29:14.742Z,89.50
2018-10-07T06:32:18.893Z,87.40
2018-10-07T06:35:23.962Z,84.90
2018-10-07T06:38:28.100Z,81.80
2018-10-07T06:41:32.222Z,80.10
2018-10-07T06:44:36.365Z,78.00
2018-10-07T06:47:40.529Z,74.80
2018-10-07T06:50:44.746Z,72.50
2018-10-07T06:53:48.878Z,71.70
2018-10-07T06:56:53.019Z,73.30
2018-10-07T06:59:57.185Z,77.00
2018-10-07T07:03:01.330Z,79.70
2018-10-07T07:06:05.462Z,82.00
2018-10-07T07:09:10.885Z,84.20
2018-10-07T07:12:15.011Z,86.00
2018-10-07T07:15:19.166Z,88.70
2018-10-07T07:18:24.332Z,90.00
2018-10-07T07:21:28.486Z,90.90
2018-10-07T07:24:32.643Z,91.70
2018-10-07T07:27:36.810Z,92.10
2018-10-07T07:30:41.002Z,92.10
2018-10-07T07:33:45.138Z,92.30
2018-10-07T07:36:49.301Z,92.40
2018-10-07T07:39:53.482Z,92.40
2018-10-07T07:42:57.638Z,92.30
2018-10-07T07:46:01.853Z,92.30
2018-10-07T07:49:06.033Z,92.40
2018-10-07T07:52:10.115Z,92.50
2018-10-07T07:55:14.269Z,92.30
2018-10-07T07:58:18.431Z,92.00
2018-10-07T08:01:22.639Z,91.70
2018-10-07T08:04:26.771Z,91.10
2018-10-07T08:07:30.938Z,90.20
2018-10-07T08:10:35.154Z,90.20
2018-10-07T08:13:39.439Z,90.00
2018-10-07T08:16:43.583Z,90.00
2018-10-07T08:19:47.782Z,89.50
2018-10-07T08:22:51.972Z,89.10
2018-10-07T08:25:56.166Z,88.80
2018-10-07T08:29:00.338Z,87.30
2018-10-07T08:32:04.503Z,88.10
2018-10-07T08:35:08.778Z,87.70
2018-10-07T08:38:12.943Z,88.10
2018-10-07T08:41:17.154Z,88.20
2018-10-07T08:44:21.318Z,87.20
2018-10-07T08:47:25.462Z,86.50
2018-10-07T08:50:29.598Z,85.70
2018-10-07T08:53:33.750Z,86.20
2018-10-07T08:56:37.926Z,86.70
2018-10-07T08:59:42.071Z,86.10
2018-10-07T09:02:46.230Z,85.20
2018-10-07T09:05:50.368Z,85.60
2018-10-07T09:08:54.705Z,83.20
2018-10-07T09:11:58.743Z,83.20
2018-10-07T09:15:03.062Z,82.90
2018-10-07T09:18:07.270Z,82.10
2018-10-07T09:21:11.401Z,80.50
2018-10-07T09:24:15.680Z,79.60
2018-10-07T09:27:20.037Z,79.00
2018-10-07T09:30:24.321Z,77.50
2018-10-07T09:33:28.466Z,76.70
2018-10-07T09:36:33.689Z,77.40
2018-10-07T09:39:37.799Z,77.80
2018-10-07T09:42:42.062Z,79.20
2018-10-07T09:45:46.183Z,78.50
2018-10-07T09:48:50.318Z,78.90
2018-10-07T09:51:54.490Z,78.00
2018-10-07T09:54:58.707Z,77.80
2018-10-07T09:58:02.913Z,76.80
2018-10-07T10:01:07.055Z,75.90
2018-10-07T10:04:11.655Z,74.40
2018-10-07T10:07:15.766Z,74.30
2018-10-07T10:10:19.942Z,72.70
2018-10-07T10:13:24.070Z,71.10
2018-10-07T10:17:33.068Z,71.20
2018-10-07T10:20:59.649Z,71.00
2018-10-07T10:25:18.138Z,69.00
2018-10-07T10:29:30.256Z,68.80
2018-10-07T10:32:42.042Z,68.10
2018-10-07T10:38:03.370Z,69.10
2018-10-07T10:41:25.418Z,67.90
2018-10-07T10:44:42.058Z,68.70
2018-10-07T10:47:47.277Z,67.20
2018-10-07T10:53:07.173Z,67.00
2018-10-07T10:56:27.793Z,66.10
2018-10-07T10:59:46.163Z,66.00
2018-10-07T11:05:08.070Z,66.40
2018-10-07T11:09:41.510Z,65.90
2018-10-07T11:13:02.328Z,65.10
2018-10-07T11:16:22.963Z,64.70
2018-10-07T11:19:37.956Z,62.30
2018-10-07T11:22:58.858Z,62.30
2018-10-07T11:26:13.985Z,62.90
2018-10-07T11:29:46.974Z,63.10
2018-10-07T11:33:12.073Z,63.40
2018-10-07T11:36:30.998Z,62.50
2018-10-07T11:42:05.850Z,62.20
2018-10-07T11:45:17.778Z,61.70
2018-10-07T11:49:32.142Z,63.10
2018-10-07T11:52:59.474Z,63.20
2018-10-07T11:56:03.521Z,63.70
2018-10-07T11:59:07.918Z,62.00
2018-10-07T12:02:12.073Z,61.80
2018-10-07T12:05:16.196Z,61.10
2018-10-07T12:08:20.413Z,60.90
2018-10-07T12:11:24.534Z,59.30
2018-10-07T12:14:28.666Z,59.00
2018-10-07T12:17:32.870Z,59.70
2018-10-07T12:20:37.011Z,59.80
2018-10-07T12:23:41.139Z,59.70
2018-10-07T12:26:45.319Z,59.70
2018-10-07T12:29:49.439Z,59.10
2018-10-07T12:32:53.570Z,58.60
2018-10-07T12:35:57.699Z,59.10
2018-10-07T12:39:01.823Z,59.90
2018-10-07T12:42:06.078Z,59.10
2018-10-07T12:45:10.234Z,58.50
2018-10-07T12:48:14.382Z,59.60
2018-10-07T12:51:18.506Z,60.10
2018-10-07T12:54:22.668Z,60.10
2018-10-07T12:57:26.802Z,58.50
2018-10-07T13:00:31.011Z,59.30
2018-10-07T13:03:35.474Z,58.00
2018-10-07T13:06:39.610Z,57.50
2018-10-07T13:09:43.794Z,58.60
2018-10-07T13:12:47.858Z,59.00
2018-10-07T13:15:51.988Z,56.60
2018-10-07T13:18:56.136Z,58.00
2018-10-07T13:22:00.266Z,56.30
2018-10-07T13:25:04.403Z,54.10
2018-10-07T13:28:08.548Z,53.90
2018-10-07T13:31:12.663Z,52.30
2018-10-07T13:34:16.825Z,50.10
2018-10-07T13:37:21.020Z,48.90
2018-10-07T13:40:25.137Z,47.30
2018-10-07T13:43:29.277Z,47.40
2018-10-07T13:46:33.422Z,46.80
2018-10-07T13:49:37.555Z,47.30
2018-10-07T13:52:41.701Z,47.60
2018-10-07T13:55:45.826Z,48.40
2018-10-07T13:58:49.953Z,48.70
2018-10-07T14:01:54.102Z,48.80
2018-10-07T14:04:58.295Z,50.00
2018-10-07T14:08:02.454Z,50.30
2018-10-07T14:11:06.778Z,50.70
2018-10-07T14:14:10.940Z,51.30
2018-10-07T14:17:15.056Z,51.50
2018-10-07T14:20:19.216Z,52.20
2018-10-07T14:23:23.352Z,52.90
2018-10-07T14:26:27.470Z,53.30
2018-10-07T14:29:31.606Z,53.60
2018-10-07T14:32:35.800Z,55.50
2018-10-07T14:35:39.970Z,54.60
2018-10-07T14:38:44.342Z,55.40
2018-10-07T14:41:48.485Z,55.50
2018-10-07T14:44:52.624Z,57.10
2018-10-07T14:47:56.749Z,57.60
2018-10-07T14:51:00.938Z,58.30
2018-10-07T14:54:05.092Z,59.30
2018-10-07T14:57:09.206Z,60.90
2018-10-07T15:00:13.347Z,61.10
2018-10-07T15:03:17.485Z,61.50
2018-10-07T15:06:21.618Z,62.00
2018-10-07T15:09:25.779Z,63.20
2018-10-07T15:12:30.114Z,64.80
2018-10-07T15:15:34.270Z,65.60
2018-10-07T15:18:38.436Z,66.30
2018-10-07T15:21:42.567Z,66.00
2018-10-07T15:24:46.732Z,66.60
2018-10-07T15:27:50.874Z,67.00
2018-10-07T15:30:55.065Z,67.60
2018-10-07T15:33:59.194Z,67.70
2018-10-07T15:37:03.330Z,67.80
2018-10-07T15:40:07.749Z,68.60
2018-10-07T15:43:11.891Z,68.90
2018-10-07T15:46:16.038Z,69.80
2018-10-07T15:49:20.174Z,69.80
2018-10-07T15:52:24.290Z,70.10
2018-10-07T15:55:28.426Z,70.90
2018-10-07T15:58:32.555Z,71.90
2018-10-07T16:01:36.690Z,71.70
2018-10-07T16:04:40.834Z,73.20
2018-10-07T16:07:44.963Z,73.00
2018-10-07T16:10:49.098Z,73.90
2018-10-07T16:13:53.230Z,75.30
2018-10-07T16:16:57.359Z,76.10
2018-10-07T16:20:01.496Z,76.30
2018-10-07T16:23:05.625Z,76.20
2018-10-07T16:26:09.870Z,76.30
2018-10-07T16:29:13.996Z,76.20
2018-10-07T16:32:18.187Z,76.40
2018-10-07T16:35:22.288Z,77.00
2018-10-07T16:38:26.602Z,77.40
2018-10-07T16:41:30.754Z,77.90
2018-10-07T16:44:34.910Z,78.20
2018-10-07T16:47:39.058Z,79.40
2018-10-07T16:50:43.196Z,79.20
2018-10-07T16:53:47.327Z,79.30
2018-10-07T16:56:51.462Z,80.00
2018-10-07T16:59:55.612Z,80.90
2018-10-07T17:02:59.858Z,81.90
2018-10-07T17:06:04.062Z,82.10
2018-10-07T17:09:09.402Z,83.40
2018-10-07T17:12:13.567Z,83.80
2018-10-07T17:15:17.694Z,84.20
2018-10-07T17:18:21.811Z,84.50
2018-10-07T17:21:25.934Z,84.50
2018-10-07T17:24:30.062Z,84.60
2018-10-07T17:27:34.352Z,84.80
2018-10-07T17:30:38.490Z,85.20
2018-10-07T17:33:42.640Z,85.30
2018-10-07T17:36:46.790Z,85.90
2018-10-07T17:39:51.054Z,85.80
2018-10-07T17:42:55.198Z,85.60
2018-10-07T17:45:59.350Z,85.90
2018-10-07T17:49:03.685Z,86.00
2018-10-07T17:52:07.682Z,86.30
2018-10-07T17:55:11.823Z,86.70
2018-10-07T17:58:15.973Z,87.40
2018-10-07T18:01:20.118Z,87.60
2018-10-07T18:04:24.266Z,87.90
2018-10-07T18:07:28.427Z,88.20
2018-10-07T18:10:32.575Z,88.10
2018-10-07T18:13:36.763Z,88.30
2018-10-07T18:16:40.907Z,88.20
2018-10-07T18:19:45.036Z,88.30
2018-10-07T18:22:49.202Z,88.80
2018-10-07T18:25:53.345Z,89.00
2018-10-07T18:28:57.498Z,89.00
2018-10-07T18:32:01.642Z,88.80
2018-10-07T18:35:05.790Z,89.00
2018-10-07T18:38:09.923Z,89.20
2018-10-07T18:41:14.077Z,89.40
2018-10-07T18:44:18.226Z,90.00
2018-10-07T18:47:22.369Z,90.00
2018-10-07T18:50:26.882Z,90.00
2018-10-07T18:53:31.066Z,90.00
2018-10-07T18:56:35.230Z,90.10
2018-10-07T18:59:39.362Z,90.10
2018-10-07T19:02:43.543Z,90.10
2018-10-07T19:05:47.646Z,90.00
2018-10-07T19:08:51.802Z,90.20
2018-10-07T19:11:55.958Z,90.40
2018-10-07T19:15:00.124Z,90.40
2018-10-07T19:18:04.557Z,90.60
2018-10-07T19:21:08.786Z,90.50
2018-10-07T19:24:12.914Z,90.60
2018-10-07T19:27:17.083Z,90.70
2018-10-07T19:30:21.255Z,90.90
2018-10-07T19:33:25.402Z,91.00
2018-10-07T19:36:29.566Z,91.00
2018-10-07T19:39:33.719Z,91.00
2018-10-07T19:42:37.863Z,91.00
2018-10-07T19:45:42.018Z,90.90
2018-10-07T19:48:46.170Z,90.90
2018-10-07T19:51:50.355Z,90.90
2018-10-07T19:54:54.502Z,91.10
2018-10-07T19:57:58.644Z,91.00
2018-10-07T20:01:02.811Z,91.00
2018-10-07T20:04:06.982Z,91.00
2018-10-07T20:07:11.138Z,91.10
2018-10-07T20:10:15.287Z,91.10
2018-10-07T20:13:19.468Z,91.10
2018-10-07T20:16:23.596Z,91.20
2018-10-07T20:19:27.862Z,91.30
2018-10-07T20:22:31.947Z,91.30
2018-10-07T20:25:36.236Z,91.50
2018-10-07T20:28:40.374Z,91.60
2018-10-07T20:31:44.584Z,91.50
2018-10-07T20:34:48.734Z,91.60
2018-10-07T20:37:52.978Z,91.80
2018-10-07T20:40:57.127Z,92.00
2018-10-07T20:44:01.352Z,91.90
2018-10-07T20:47:05.550Z,91.90
2018-10-07T20:50:09.696Z,92.20
2018-10-07T20:53:13.834Z,92.30
2018-10-07T20:56:18.054Z,92.50
2018-10-07T20:59:22.213Z,92.40
2018-10-07T21:02:26.511Z,92.40
2018-10-07T21:05:30.642Z,92.70
2018-10-07T21:08:34.786Z,92.50
2018-10-07T21:11:39.243Z,92.90
2018-10-07T21:14:43.414Z,92.90
2018-10-07T21:17:47.570Z,92.80
2018-10-07T21:20:51.726Z,92.80
2018-10-07T21:23:56.010Z,92.80
2018-10-07T21:27:00.162Z,92.60
2018-10-07T21:30:04.334Z,92.70
2018-10-07T21:33:08.482Z,92.80
2018-10-07T21:36:12.613Z,92.80
2018-10-07T21:39:16.782Z,92.70
2018-10-07T21:42:20.938Z,92.80
2018-10-07T21:45:25.096Z,93.20
2018-10-07T21:48:29.235Z,93.00
2018-10-07T21:51:33.375Z,93.40
2018-10-07T21:54:37.527Z,93.10
2018-10-07T21:57:41.676Z,93.20
2018-10-07T22:00:45.815Z,93.60
2018-10-07T22:03:49.998Z,93.60
2018-10-07T22:06:57.193Z,93.60
2018-10-07T22:10:01.353Z,93.40
2018-10-07T22:13:05.489Z,93.20
2018-10-07T22:16:09.649Z,93.20
2018-10-07T22:19:13.790Z,93.20
2018-10-07T22:22:17.950Z,93.10
2018-10-07T22:25:22.090Z,92.90
2018-10-07T22:28:26.238Z,92.80
2018-10-07T22:31:30.378Z,93.10
2018-10-07T22:34:34.525Z,93.50
2018-10-07T22:37:38.731Z,93.50
2018-10-07T22:40:42.877Z,93.50
2018-10-07T22:43:47.035Z,93.80
2018-10-07T22:46:51.174Z,94.30
2018-10-07T22:49:55.322Z,94.50
2018-10-07T22:52:59.467Z,94.40
2018-10-07T22:56:03.620Z,94.20
2018-10-07T22:59:07.774Z,93.90
2018-10-07T23:02:11.916Z,94.00
2018-10-07T23:05:16.055Z,94.40
2018-10-07T23:08:20.211Z,94.60
2018-10-07T23:11:24.342Z,94.50
2018-10-07T23:14:28.516Z,94.40
2018-10-07T23:17:32.666Z,94.20
2018-10-07T23:20:36.814Z,94.10
2018-10-07T23:23:40.990Z,94.00
2018-10-07T23:26:45.130Z,94.20
2018-10-07T23:29:49.287Z,93.80
2018-10-07T23:32:53.456Z,93.70
2018-10-07T23:35:57.585Z,93.50
2018-10-07T23:39:01.718Z,93.40
2018-10-07T23:42:05.866Z,93.40
2018-10-07T23:45:10.011Z,93.30
2018-10-07T23:48:14.196Z,93.30
2018-10-07T23:51:18.357Z,93.40
2018-10-07T23:54:22.479Z,93.40
2018-10-07T23:57:26.621Z,93.40
